createdAt,value
2017-09-11T00:01:43.964Z,15.30
2017-09-11T00:04:11.420Z,15.30
2017-09-11T00:06:38.872Z,15.30
2017-09-11T00:09:06.313Z,15.30
2017-09-11T00:11:34.016Z,15.20
2017-09-11T00:14:07.104Z,15.20
2017-09-11T00:16:34.600Z,15.10
2017-09-11T00:19:02.052Z,15.10
2017-09-11T00:21:29.498Z,15.00
2017-09-11T00:23:56.954Z,15.00
2017-09-11T00:26:24.393Z,15.00
2017-09-11T00:28:51.851Z,15.00
2017-09-11T00:31:19.355Z,15.00
2017-09-11T00:33:46.797Z,14.90
2017-09-11T00:36:14.268Z,15.00
2017-09-11T00:38:41.697Z,15.00
2017-09-11T00:41:09.218Z,15.00
2017-09-11T00:43:36.658Z,15.00
2017-09-11T00:46:04.078Z,15.00
2017-09-11T00:48:31.511Z,15.00
2017-09-11T00:50:59.252Z,15.00
2017-09-11T00:53:26.680Z,15.00
2017-09-11T00:55:54.491Z,15.00
2017-09-11T00:58:21.981Z,15.00
2017-09-11T01:00:49.395Z,15.00
2017-09-11T01:03:16.856Z,15.00
2017-09-11T01:08:18.180Z,15.00
2017-09-11T01:10:46.015Z,15.00
2017-09-11T01:13:13.459Z,15.00
2017-09-11T01:15:40.910Z,15.00
2017-09-11T01:18:08.596Z,14.90
2017-09-11T01:20:36.061Z,14.90
2017-09-11T01:23:03.552Z,15.00
2017-09-11T01:25:30.951Z,15.00
2017-09-11T01:27:58.385Z,15.00
2017-09-11T01:30:25.996Z,15.00
2017-09-11T01:32:53.432Z,15.00
2017-09-11T01:35:21.255Z,15.00
2017-09-11T01:37:48.713Z,15.00
2017-09-11T01:40:16.128Z,15.00
2017-09-11T01:42:43.616Z,15.00
2017-09-11T01:45:11.071Z,15.00
2017-09-11T01:47:38.483Z,15.00
2017-09-11T01:50:06.051Z,14.90
2017-09-11T01:52:33.918Z,14.90
2017-09-11T01:55:01.347Z,14.90
2017-09-11T01:57:28.781Z,14.90
2017-09-11T01:59:56.272Z,14.90
2017-09-11T02:02:23.716Z,15.00
2017-09-11T02:04:51.135Z,15.00
2017-09-11T02:07:54.675Z,15.10
2017-09-11T02:10:22.349Z,15.10
2017-09-11T02:12:49.761Z,15.10
2017-09-11T02:15:17.603Z,15.20
2017-09-11T02:17:45.127Z,15.20
2017-09-11T02:20:12.568Z,15.10
2017-09-11T02:22:39.994Z,15.10
2017-09-11T02:25:07.414Z,15.20
2017-09-11T02:27:34.877Z,15.20
2017-09-11T02:30:02.308Z,15.20
2017-09-11T02:32:30.127Z,15.20
2017-09-11T02:34:57.551Z,15.20
2017-09-11T02:37:25.026Z,15.30
2017-09-11T02:39:52.483Z,15.30
2017-09-11T02:42:19.907Z,15.30
2017-09-11T02:44:47.367Z,15.30
2017-09-11T02:47:15.790Z,15.30
2017-09-11T02:49:43.226Z,15.30
2017-09-11T02:52:10.662Z,15.30
2017-09-11T02:54:38.121Z,15.30
2017-09-11T02:57:05.564Z,15.30
2017-09-11T02:59:34.078Z,15.30
2017-09-11T03:02:01.505Z,15.40
2017-09-11T03:04:28.969Z,15.30
2017-09-11T03:06:56.438Z,15.40
2017-09-11T03:09:24.003Z,15.40
2017-09-11T03:11:51.474Z,15.30
2017-09-11T03:14:18.947Z,15.30
2017-09-11T03:16:46.416Z,15.30
2017-09-11T03:19:13.854Z,15.30
2017-09-11T03:21:41.406Z,15.30
2017-09-11T03:24:08.848Z,15.30
2017-09-11T03:26:36.306Z,15.20
2017-09-11T03:29:04.297Z,15.30
2017-09-11T03:31:31.732Z,15.30
2017-09-11T03:33:59.188Z,15.30
2017-09-11T03:36:27.242Z,15.30
2017-09-11T03:38:54.679Z,15.30
2017-09-11T03:41:22.154Z,15.30
2017-09-11T03:43:49.780Z,15.30
2017-09-11T03:46:17.245Z,15.30
2017-09-11T03:48:44.708Z,15.30
2017-09-11T03:51:12.208Z,15.30
2017-09-11T03:53:39.671Z,15.30
2017-09-11T03:56:07.115Z,15.40
2017-09-11T03:58:36.003Z,15.40
2017-09-11T04:01:03.460Z,15.40
2017-09-11T04:03:30.912Z,15.40
2017-09-11T04:05:58.348Z,15.40
2017-09-11T04:08:25.787Z,15.40
2017-09-11T04:10:53.238Z,15.40
2017-09-11T04:13:20.844Z,15.40
2017-09-11T04:15:48.290Z,15.40
2017-09-11T04:18:16.235Z,15.40
2017-09-11T04:20:43.814Z,15.40
2017-09-11T04:23:11.242Z,15.30
2017-09-11T04:25:38.691Z,15.30
2017-09-11T04:28:06.366Z,15.40
2017-09-11T04:30:33.801Z,15.30
2017-09-11T04:33:01.242Z,15.30
2017-09-11T04:35:30.561Z,15.30
2017-09-11T04:37:58.016Z,15.30
2017-09-11T04:40:25.471Z,15.30
2017-09-11T04:42:53.332Z,15.30
2017-09-11T04:45:20.781Z,15.30
2017-09-11T04:47:48.207Z,15.40
2017-09-11T04:50:15.666Z,15.40
2017-09-11T04:52:43.461Z,15.30
2017-09-11T04:55:10.892Z,15.40
2017-09-11T04:57:38.336Z,15.30
2017-09-11T05:00:05.777Z,15.30
2017-09-11T05:02:33.593Z,15.20
2017-09-11T05:05:02.519Z,15.20
2017-09-11T05:07:30.057Z,15.20
2017-09-11T05:09:57.537Z,15.10
2017-09-11T05:12:24.980Z,15.10
2017-09-11T05:14:53.265Z,15.00
2017-09-11T05:17:20.692Z,15.00
2017-09-11T05:19:48.122Z,14.90
2017-09-11T05:22:15.946Z,14.90
2017-09-11T05:24:43.391Z,14.90
2017-09-11T05:27:10.838Z,14.90
2017-09-11T05:29:38.566Z,14.90
2017-09-11T05:32:05.990Z,14.90
2017-09-11T05:34:34.069Z,14.90
2017-09-11T05:37:01.730Z,14.80
2017-09-11T05:39:29.167Z,14.80
2017-09-11T05:41:56.684Z,14.80
2017-09-11T05:44:29.220Z,14.70
2017-09-11T05:46:56.653Z,14.70
2017-09-11T05:49:24.587Z,14.70
2017-09-11T05:51:52.022Z,14.70
2017-09-11T05:54:19.461Z,14.80
2017-09-11T05:56:47.427Z,14.70
2017-09-11T05:59:16.202Z,14.70
2017-09-11T06:01:43.663Z,14.70
2017-09-11T06:04:11.201Z,14.70
2017-09-11T06:06:38.657Z,14.70
2017-09-11T06:09:06.094Z,14.70
2017-09-11T06:11:33.523Z,14.70
2017-09-11T06:14:01.400Z,14.70
2017-09-11T06:16:29.216Z,14.70
2017-09-11T06:18:56.652Z,14.70
2017-09-11T06:21:24.141Z,14.70
2017-09-11T06:23:51.588Z,14.70
2017-09-11T06:26:19.040Z,14.70
2017-09-11T06:28:46.661Z,14.70
2017-09-11T06:31:14.114Z,14.70
2017-09-11T06:33:41.548Z,14.70
2017-09-11T06:36:09.007Z,14.70
2017-09-11T06:38:36.438Z,14.80
2017-09-11T06:41:03.870Z,14.80
2017-09-11T06:43:31.331Z,14.90
2017-09-11T06:45:58.756Z,14.90
2017-09-11T06:48:26.203Z,14.90
2017-09-11T06:50:53.649Z,14.90
2017-09-11T06:53:21.075Z,14.90
2017-09-11T06:55:48.512Z,14.90
2017-09-11T06:58:16.781Z,15.00
2017-09-11T07:00:44.216Z,15.00
2017-09-11T07:06:02.815Z,15.10
2017-09-11T07:08:30.270Z,15.10
2017-09-11T07:10:57.708Z,15.10
2017-09-11T07:13:40.077Z,15.10
2017-09-11T07:16:07.488Z,15.10
2017-09-11T07:18:34.924Z,15.20
2017-09-11T07:21:02.479Z,15.20
2017-09-11T07:23:30.292Z,15.30
2017-09-11T07:25:57.734Z,15.30
2017-09-11T07:28:25.206Z,15.30
2017-09-11T07:30:53.989Z,15.30
2017-09-11T07:33:21.447Z,15.30
2017-09-11T07:35:49.095Z,15.30
2017-09-11T07:38:16.929Z,15.30
2017-09-11T07:40:44.390Z,15.30
2017-09-11T07:43:11.876Z,15.40
2017-09-11T07:45:39.735Z,15.40
2017-09-11T07:48:07.375Z,15.40
2017-09-11T07:50:34.818Z,15.40
2017-09-11T07:53:02.260Z,15.40
2017-09-11T07:55:29.887Z,15.50
2017-09-11T07:57:57.451Z,15.50
2017-09-11T08:00:25.041Z,15.50
2017-09-11T08:02:53.677Z,15.50
2017-09-11T08:05:21.138Z,15.50
2017-09-11T08:07:48.598Z,15.50
2017-09-11T08:10:16.054Z,15.60
2017-09-11T08:12:43.810Z,15.70
2017-09-11T08:15:11.247Z,15.80
2017-09-11T08:17:39.084Z,16.10
2017-09-11T08:20:06.821Z,16.10
2017-09-11T08:22:34.274Z,16.20
2017-09-11T08:25:01.759Z,16.30
2017-09-11T08:27:29.191Z,16.40
2017-09-11T08:29:56.869Z,16.40
2017-09-11T08:32:24.313Z,16.40
2017-09-11T08:34:51.739Z,16.40
2017-09-11T08:37:19.229Z,16.40
2017-09-11T08:39:47.062Z,16.50
2017-09-11T08:42:14.723Z,16.50
2017-09-11T08:44:42.171Z,16.50
2017-09-11T08:47:09.595Z,16.50
2017-09-11T08:49:37.072Z,16.50
2017-09-11T08:52:04.518Z,16.50
2017-09-11T08:54:32.043Z,16.50
2017-09-11T08:56:59.501Z,16.50
2017-09-11T08:59:27.636Z,16.60
2017-09-11T09:01:55.087Z,16.60
2017-09-11T09:04:22.527Z,16.60
2017-09-11T09:06:50.340Z,16.70
2017-09-11T09:09:17.998Z,16.70
2017-09-11T09:11:45.477Z,16.80
2017-09-11T09:14:12.920Z,16.70
2017-09-11T09:16:40.400Z,16.70
2017-09-11T09:19:07.850Z,16.80
2017-09-11T09:21:35.606Z,16.80
2017-09-11T09:24:03.211Z,16.80
2017-09-11T09:26:30.700Z,16.90
2017-09-11T09:28:58.536Z,17.10
2017-09-11T09:31:26.196Z,17.10
2017-09-11T09:33:53.628Z,17.20
2017-09-11T09:36:21.063Z,17.20
2017-09-11T09:38:48.931Z,17.40
2017-09-11T09:41:16.408Z,17.40
2017-09-11T09:43:44.541Z,17.60
2017-09-11T09:46:12.002Z,17.60
2017-09-11T09:48:39.453Z,17.70
2017-09-11T09:51:07.021Z,17.80
2017-09-11T09:53:34.558Z,17.90
2017-09-11T09:56:01.963Z,18.00
2017-09-11T09:58:29.688Z,18.10
2017-09-11T10:00:57.158Z,18.10
2017-09-11T10:03:24.586Z,18.20
2017-09-11T10:05:52.489Z,17.90
2017-09-11T10:08:19.939Z,17.90
2017-09-11T10:10:47.385Z,17.80
2017-09-11T10:13:14.852Z,17.80
2017-09-11T10:15:42.343Z,17.80
2017-09-11T10:18:09.810Z,17.80
2017-09-11T10:20:37.303Z,17.80
2017-09-11T10:23:04.715Z,17.80
2017-09-11T10:25:32.150Z,17.90
2017-09-11T10:30:51.824Z,18.10
2017-09-11T10:33:19.667Z,18.20
2017-09-11T10:35:47.095Z,18.20
2017-09-11T10:38:14.554Z,18.20
2017-09-11T10:40:42.009Z,18.20
2017-09-11T10:43:09.455Z,18.30
2017-09-11T10:45:37.055Z,18.40
2017-09-11T10:48:04.486Z,18.50
2017-09-11T10:50:32.422Z,18.50
2017-09-11T10:52:59.980Z,18.50
2017-09-11T10:55:27.417Z,18.60
2017-09-11T10:57:54.860Z,18.60
2017-09-11T11:00:22.563Z,18.70
2017-09-11T11:02:50.014Z,18.90
2017-09-11T11:05:17.801Z,19.00
2017-09-11T11:07:46.082Z,19.10
2017-09-11T11:10:13.519Z,19.10
2017-09-11T11:12:40.962Z,19.20
2017-09-11T11:15:08.434Z,19.20
2017-09-11T11:17:35.887Z,19.30
2017-09-11T11:20:03.336Z,19.20
2017-09-11T11:22:31.037Z,19.20
2017-09-11T11:24:58.474Z,19.20
2017-09-11T11:27:25.911Z,19.20
2017-09-11T11:29:53.655Z,19.30
2017-09-11T11:32:21.071Z,19.30
2017-09-11T11:34:48.523Z,19.40
2017-09-11T11:37:16.007Z,19.50
2017-09-11T11:39:43.443Z,19.50
2017-09-11T11:42:10.887Z,19.50
2017-09-11T11:44:40.167Z,19.50
2017-09-11T11:47:07.619Z,19.50
2017-09-11T11:49:35.049Z,19.60
2017-09-11T11:52:02.536Z,19.60
2017-09-11T11:54:29.957Z,19.50
2017-09-11T11:56:57.500Z,19.40
2017-09-11T11:59:24.940Z,19.30
2017-09-11T12:01:52.406Z,19.40
2017-09-11T12:04:19.852Z,19.30
2017-09-11T12:06:48.144Z,19.20
2017-09-11T12:09:15.556Z,19.10
2017-09-11T12:11:43.000Z,19.10
2017-09-11T12:14:10.460Z,19.10
2017-09-11T12:16:37.899Z,19.00
2017-09-11T12:19:05.355Z,19.00
2017-09-11T12:21:32.821Z,19.00
2017-09-11T12:24:00.270Z,19.00
2017-09-11T12:26:28.029Z,19.00
2017-09-11T12:28:57.263Z,19.00
2017-09-11T12:31:25.120Z,19.00
2017-09-11T12:33:52.605Z,19.10
2017-09-11T12:36:20.218Z,19.10
2017-09-11T12:38:47.647Z,19.20
2017-09-11T12:41:15.072Z,19.30
2017-09-11T12:43:42.523Z,19.40
2017-09-11T12:46:09.981Z,19.50
2017-09-11T12:48:37.430Z,19.50
2017-09-11T12:51:04.937Z,19.50
2017-09-11T12:53:32.787Z,19.40
2017-09-11T12:56:00.242Z,19.40
2017-09-11T12:58:27.723Z,19.40
2017-09-11T13:00:55.164Z,19.50
2017-09-11T13:03:29.678Z,19.40
2017-09-11T13:05:57.167Z,19.30
2017-09-11T13:08:24.613Z,19.30
2017-09-11T13:10:52.276Z,19.20
2017-09-11T13:13:19.716Z,19.20
2017-09-11T13:15:47.139Z,19.20
2017-09-11T13:18:16.484Z,19.10
2017-09-11T13:20:43.928Z,19.20
2017-09-11T13:23:11.403Z,19.10
2017-09-11T13:25:38.980Z,19.20
2017-09-11T13:28:06.401Z,19.20
2017-09-11T13:30:33.846Z,19.20
2017-09-11T13:33:01.707Z,19.30
2017-09-11T13:35:29.150Z,19.30
2017-09-11T13:37:56.599Z,19.30
2017-09-11T13:40:24.234Z,19.40
2017-09-11T13:42:51.647Z,19.50
2017-09-11T13:45:19.183Z,19.60
2017-09-11T13:47:47.240Z,19.70
2017-09-11T13:50:14.678Z,19.80
2017-09-11T13:52:42.526Z,20.00
2017-09-11T13:55:10.182Z,20.00
2017-09-11T13:57:37.658Z,20.10
2017-09-11T14:00:05.273Z,20.30
2017-09-11T14:02:33.097Z,20.30
2017-09-11T14:05:00.667Z,20.30
2017-09-11T14:07:28.131Z,20.30
2017-09-11T14:09:56.178Z,20.20
2017-09-11T14:12:25.700Z,20.10
2017-09-11T14:14:53.539Z,20.20
2017-09-11T14:17:21.002Z,20.20
2017-09-11T14:19:48.468Z,20.30
2017-09-11T14:22:15.906Z,20.30
2017-09-11T14:24:43.383Z,20.40
2017-09-11T14:27:10.814Z,20.50
2017-09-11T14:29:38.377Z,20.60
2017-09-11T14:32:07.660Z,20.60
2017-09-11T14:34:35.508Z,20.70
2017-09-11T14:37:03.018Z,20.70
2017-09-11T14:39:30.449Z,20.60
2017-09-11T14:41:58.036Z,20.70
2017-09-11T14:47:19.898Z,20.70
2017-09-11T14:49:47.578Z,20.70
2017-09-11T14:52:15.219Z,20.70
2017-09-11T14:54:42.723Z,20.70
2017-09-11T14:57:10.172Z,20.80
2017-09-11T14:59:37.741Z,20.90
2017-09-11T15:02:05.387Z,20.90
2017-09-11T15:04:32.858Z,20.90
2017-09-11T15:07:00.293Z,20.80
2017-09-11T15:09:27.811Z,20.70
2017-09-11T15:11:55.251Z,20.70
2017-09-11T15:14:22.848Z,20.70
2017-09-11T15:16:50.304Z,20.70
2017-09-11T15:19:17.743Z,20.60
2017-09-11T15:21:45.234Z,20.40
2017-09-11T15:24:12.680Z,20.30
2017-09-11T15:26:40.680Z,20.20
2017-09-11T15:29:08.297Z,20.10
2017-09-11T15:31:35.840Z,20.00
2017-09-11T15:34:03.288Z,19.80
2017-09-11T15:36:30.781Z,19.80
2017-09-11T15:38:58.237Z,19.70
2017-09-11T15:41:25.732Z,19.60
2017-09-11T15:43:53.372Z,19.50
2017-09-11T15:46:20.812Z,19.40
2017-09-11T15:48:48.252Z,19.30
2017-09-11T15:51:16.131Z,19.00
2017-09-11T15:53:44.556Z,19.00
2017-09-11T15:56:11.971Z,18.80
2017-09-11T15:58:40.178Z,18.50
2017-09-11T16:01:08.022Z,18.40
2017-09-11T16:03:35.540Z,18.40
2017-09-11T16:06:03.122Z,18.30
2017-09-11T16:08:30.595Z,18.20
2017-09-11T16:10:58.056Z,17.90
2017-09-11T16:13:26.075Z,17.30
2017-09-11T16:15:53.669Z,17.30
2017-09-11T16:18:21.158Z,17.10
2017-09-11T16:20:48.635Z,16.80
2017-09-11T16:23:16.575Z,16.50
2017-09-11T16:25:44.024Z,16.50
2017-09-11T16:28:11.604Z,16.50
2017-09-11T16:30:39.238Z,16.50
2017-09-11T16:33:06.743Z,16.50
2017-09-11T16:35:34.276Z,16.60
2017-09-11T16:38:01.903Z,16.60
2017-09-11T16:40:29.791Z,16.60
2017-09-11T16:42:57.240Z,16.60
2017-09-11T16:45:25.116Z,16.70
2017-09-11T16:47:52.619Z,16.70
2017-09-11T16:50:20.047Z,16.70
2017-09-11T16:52:47.496Z,16.70
2017-09-11T16:55:14.939Z,16.80
2017-09-11T16:57:42.963Z,16.80
2017-09-11T17:00:10.433Z,16.80
2017-09-11T17:02:37.874Z,16.80
2017-09-11T17:05:05.314Z,16.80
2017-09-11T17:07:32.774Z,16.80
2017-09-11T17:10:00.486Z,16.90
2017-09-11T17:12:27.906Z,16.90
2017-09-11T17:14:55.325Z,16.90
2017-09-11T17:17:22.770Z,16.90
2017-09-11T17:19:50.312Z,16.90
2017-09-11T17:22:17.757Z,16.90
2017-09-11T17:24:45.345Z,16.90
2017-09-11T17:27:12.767Z,16.90
2017-09-11T17:29:40.620Z,16.90
2017-09-11T17:32:13.937Z,16.90
2017-09-11T17:34:41.934Z,16.80
2017-09-11T17:37:09.359Z,16.80
2017-09-11T17:39:37.231Z,16.80
2017-09-11T17:42:05.072Z,16.80
2017-09-11T17:44:32.489Z,16.80
2017-09-11T17:46:59.914Z,16.80
2017-09-11T17:49:27.369Z,16.80
2017-09-11T17:51:54.796Z,16.70
2017-09-11T17:54:22.216Z,16.70
2017-09-11T17:56:50.052Z,16.60
2017-09-11T17:59:17.457Z,16.60
2017-09-11T18:01:44.888Z,16.50
2017-09-11T18:04:12.327Z,16.50
2017-09-11T18:06:39.763Z,16.50
2017-09-11T18:09:07.186Z,16.50
2017-09-11T18:11:35.024Z,16.50
2017-09-11T18:14:02.462Z,16.50
2017-09-11T18:16:30.865Z,16.40
2017-09-11T18:18:59.839Z,16.40
2017-09-11T18:21:27.260Z,16.40
2017-09-11T18:23:55.080Z,16.30
2017-09-11T18:26:22.548Z,16.30
2017-09-11T18:28:49.959Z,16.30
2017-09-11T18:31:17.783Z,16.20
2017-09-11T18:33:45.224Z,16.20
2017-09-11T18:36:12.652Z,16.20
2017-09-11T18:38:40.455Z,16.10
2017-09-11T18:41:07.895Z,16.10
2017-09-11T18:43:35.369Z,16.10
2017-09-11T18:46:03.710Z,16.00
2017-09-11T18:48:31.728Z,16.00
2017-09-11T18:50:59.152Z,16.00
2017-09-11T18:53:26.978Z,16.00
2017-09-11T18:55:54.523Z,16.00
2017-09-11T18:58:21.939Z,16.00
2017-09-11T19:00:49.364Z,16.00
2017-09-11T19:03:16.830Z,16.00
2017-09-11T19:05:44.248Z,16.00
2017-09-11T19:08:13.167Z,16.00
2017-09-11T19:10:40.842Z,16.00
2017-09-11T19:13:08.263Z,16.00
2017-09-11T19:15:41.023Z,15.90
2017-09-11T19:18:08.450Z,15.90
2017-09-11T19:20:35.903Z,15.80
2017-09-11T19:23:04.255Z,15.80
2017-09-11T19:25:32.104Z,15.70
2017-09-11T19:27:59.536Z,15.70
2017-09-11T19:30:27.180Z,15.70
2017-09-11T19:32:54.593Z,15.60
2017-09-11T19:35:22.015Z,15.60
2017-09-11T19:40:40.249Z,15.50
2017-09-11T19:43:10.174Z,15.40
2017-09-11T21:22:55.532Z,15.10
2017-09-11T21:25:22.960Z,15.10
2017-09-11T21:27:50.784Z,15.10
2017-09-11T21:30:18.351Z,15.10
2017-09-11T21:32:45.756Z,15.10
2017-09-11T21:35:13.667Z,15.20
2017-09-11T21:37:41.118Z,15.20
2017-09-11T21:40:08.523Z,15.20
2017-09-11T21:42:35.941Z,15.20
2017-09-11T21:45:03.385Z,15.30
2017-09-11T21:47:31.194Z,15.30
2017-09-11T21:49:58.616Z,15.30
2017-09-11T21:52:26.471Z,15.30
2017-09-11T21:54:54.284Z,15.30
2017-09-11T21:57:21.699Z,15.30
2017-09-11T21:59:49.713Z,15.30
2017-09-11T22:02:17.143Z,15.30
2017-09-11T22:04:44.955Z,15.30
2017-09-11T22:07:12.397Z,15.30
2017-09-11T22:09:39.815Z,15.30
2017-09-11T22:12:07.347Z,15.30
2017-09-11T22:14:35.619Z,15.30
2017-09-11T22:17:03.055Z,15.30
2017-09-11T22:19:30.475Z,15.20
2017-09-11T22:21:58.012Z,15.30
2017-09-11T22:24:25.442Z,15.30
2017-09-11T22:26:52.864Z,15.30
2017-09-11T22:29:21.510Z,15.30
2017-09-11T22:31:48.940Z,15.30
2017-09-11T22:34:18.708Z,15.20
2017-09-11T22:36:46.346Z,15.20
2017-09-11T22:39:13.767Z,15.20
2017-09-11T22:41:41.588Z,15.20
2017-09-11T22:44:09.027Z,15.20
2017-09-11T22:46:36.448Z,15.20
2017-09-11T22:49:03.858Z,15.20
2017-09-11T22:51:31.308Z,15.20
2017-09-11T22:53:58.736Z,15.20
2017-09-11T22:56:26.232Z,15.20
2017-09-11T22:58:53.673Z,15.20
2017-09-11T23:01:21.091Z,15.20
2017-09-11T23:03:48.516Z,15.10
2017-09-11T23:06:16.224Z,15.20
2017-09-11T23:08:43.644Z,15.10
2017-09-11T23:11:11.123Z,15.10
2017-09-11T23:13:38.671Z,15.10
2017-09-11T23:16:06.475Z,15.10
2017-09-11T23:18:33.904Z,15.10
2017-09-11T23:21:01.356Z,15.00
2017-09-11T23:23:29.165Z,15.00
2017-09-11T23:25:56.621Z,15.00
2017-09-11T23:28:24.278Z,15.00
2017-09-11T23:30:51.708Z,15.00
2017-09-11T23:33:19.619Z,15.00
2017-09-11T23:35:47.070Z,15.00
2017-09-11T23:38:14.495Z,15.00
2017-09-11T23:40:42.517Z,15.00
2017-09-11T23:43:10.085Z,15.00
2017-09-11T23:45:37.503Z,15.00
2017-09-11T23:48:05.323Z,15.00
2017-09-11T23:50:32.774Z,15.00
2017-09-11T23:53:00.233Z,15.00
2017-09-11T23:55:27.650Z,15.00
2017-09-11T23:57:56.067Z,15.00
